Time;durP1;ratioP1;P1;durP2;ratioP2;P2;SDS_P1;SDS_P2;PMS_P1;PMS_P2;Temp;Humidity;BMP_temperature;BMP_pressure;BME280_temperature;BME280_humidity;BME280_pressure;Samples;Min_cycle;Max_cycle;Signal;HPM_P1;HPM_P2
2022/08/11 00:00:48;;;;;;;5.97;3.40;;;;;;;;;;8481689;27;20047;-77
2022/08/11 00:05:01;;;;;;;8.18;3.60;;;;;;;;;;8476795;27;20055;-84
2022/08/11 00:09:07;;;;;;;6.57;3.55;;;;;;;;;;8471434;27;20067;-79
2022/08/11 00:13:10;;;;;;;5.63;3.53;;;;;;;;;;8481571;27;20042;-79
2022/08/11 00:17:16;;;;;;;7.95;3.97;;;;;;;;;;8479234;27;20485;-78
2022/08/11 00:21:21;;;;;;;6.82;3.88;;;;;;;;;;8475498;27;20039;-78
2022/08/11 00:25:24;;;;;;;7.38;3.30;;;;;;;;;;8479234;27;20035;-78
2022/08/11 00:29:27;;;;;;;6.05;3.53;;;;;;;;;;8487372;27;20457;-79
2022/08/11 00:33:37;;;;;;;7.15;3.28;;;;;;;;;;8475383;27;20062;-78
2022/08/11 00:37:47;;;;;;;6.35;3.28;;;;;;;;;;8478435;27;20122;-79
2022/08/11 00:42:04;;;;;;;5.68;3.63;;;;;;;;;;8471840;27;20048;-76
2022/08/11 00:46:15;;;;;;;6.30;3.58;;;;;;;;;;8486629;27;20089;-77
2022/08/11 00:50:27;;;;;;;6.37;3.40;;;;;;;;;;8483926;27;20053;-77
2022/08/11 00:55:00;;;;;;;5.38;3.40;;;;;;;;;;8471850;27;20070;-77
2022/08/11 00:59:36;;;;;;;6.53;3.83;;;;;;;;;;8467792;27;20044;-77
2022/08/11 01:04:08;;;;;;;5.10;3.40;;;;;;;;;;8453955;27;20048;-77
2022/08/11 01:08:53;;;;;;;6.18;3.17;;;;;;;;;;8440879;28;20052;-77
2022/08/11 01:13:10;;;;;;;6.03;3.78;;;;;;;;;;8438047;27;20043;-79
2022/08/11 01:18:12;;;;;;;6.97;3.78;;;;;;;;;;8461416;27;20054;-78
2022/08/11 01:22:59;;;;;;;6.50;3.40;;;;;;;;;;8482022;27;20522;-78
2022/08/11 01:27:48;;;;;;;9.80;3.67;;;;;;;;;;8480136;27;20126;-78
2022/08/11 01:32:42;;;;;;;6.90;4.10;;;;;;;;;;8480990;27;20503;-78
2022/08/11 01:37:26;;;;;;;6.53;3.63;;;;;;;;;;8478429;27;20043;-78
2022/08/11 01:52:04;;;;;;;5.18;3.70;;;;;;;;;;8439988;27;20144;-77
2022/08/11 01:56:34;;;;;;;5.72;3.15;;;;;;;;;;8443161;27;20052;-78
2022/08/11 02:00:52;;;;;;;6.78;3.40;;;;;;;;;;8448064;27;20043;-77
2022/08/11 02:05:03;;;;;;;8.43;5.00;;;;;;;;;;8462231;27;20044;-77
2022/08/11 02:09:13;;;;;;;11.93;7.13;;;;;;;;;;8442806;27;20067;-77
2022/08/11 02:13:34;;;;;;;13.32;8.65;;;;;;;;;;8439001;28;20432;-78
2022/08/11 02:17:50;;;;;;;9.30;6.30;;;;;;;;;;8440286;28;20063;-77
2022/08/11 02:26:26;;;;;;;15.48;10.13;;;;;;;;;;8440975;27;20055;-77
2022/08/11 02:30:37;;;;;;;17.70;10.07;;;;;;;;;;8440356;27;20039;-76
2022/08/11 02:34:51;;;;;;;8.00;4.38;;;;;;;;;;8441201;27;20059;-77
2022/08/11 02:39:17;;;;;;;11.13;5.68;;;;;;;;;;8443831;27;20040;-81
2022/08/11 02:43:30;;;;;;;14.85;7.25;;;;;;;;;;8440285;28;20297;-77
2022/08/11 02:49:52;;;;;;;12.10;6.13;;;;;;;;;;8440926;28;20052;-76
2022/08/11 02:52:20;;;;;;;11.65;6.55;;;;;;;;;;8440953;28;20043;-80
2022/08/11 02:56:43;;;;;;;12.82;7.57;;;;;;;;;;8438853;28;20047;-76
2022/08/11 03:00:53;;;;;;;11.25;6.35;;;;;;;;;;8451676;28;20469;-77
2022/08/11 03:05:16;;;;;;;7.60;4.63;;;;;;;;;;8448566;27;20045;-77
2022/08/11 03:09:27;;;;;;;7.85;4.47;;;;;;;;;;8439684;28;20081;-77
2022/08/11 03:18:02;;;;;;;7.72;4.15;;;;;;;;;;8474708;28;20047;-78
2022/08/11 03:22:13;;;;;;;5.83;4.30;;;;;;;;;;8465436;28;20035;-76
2022/08/11 03:26:28;;;;;;;7.30;4.90;;;;;;;;;;8473047;28;20082;-76
2022/08/11 03:30:40;;;;;;;7.03;4.18;;;;;;;;;;8479085;27;20476;-76
2022/08/11 03:34:46;;;;;;;8.65;4.38;;;;;;;;;;8497628;27;20052;-79
2022/08/11 03:39:06;;;;;;;6.35;4.55;;;;;;;;;;8502054;27;20088;-83
2022/08/11 03:43:22;;;;;;;7.90;5.20;;;;;;;;;;8475720;27;20415;-78
2022/08/11 03:47:40;;;;;;;6.50;4.18;;;;;;;;;;8469085;27;20047;-76
2022/08/11 03:51:53;;;;;;;23.60;5.03;;;;;;;;;;8470764;27;20043;-77
2022/08/11 03:56:36;;;;;;;17.13;5.35;;;;;;;;;;8485502;27;20043;-78
2022/08/11 04:01:07;;;;;;;10.60;4.90;;;;;;;;;;8474907;27;20054;-77
2022/08/11 04:05:40;;;;;;;9.90;4.85;;;;;;;;;;8475934;27;20031;-77
2022/08/11 04:10:15;;;;;;;9.43;4.82;;;;;;;;;;8412066;27;20059;-85
2022/08/11 04:19:53;;;;;;;8.48;4.40;;;;;;;;;;8385443;27;20051;-76
2022/08/11 04:24:34;;;;;;;10.15;4.80;;;;;;;;;;8486241;27;20039;-77
2022/08/11 04:28:55;;;;;;;8.10;5.63;;;;;;;;;;8466471;27;20040;-78
2022/08/11 04:33:35;;;;;;;15.77;6.55;;;;;;;;;;8455021;27;20046;-77
2022/08/11 04:38:02;;;;;;;11.02;5.55;;;;;;;;;;8457818;27;20531;-76
2022/08/11 05:01:39;;;;;;;18.50;7.35;;;;;;;;;;8486393;27;20107;-76
2022/08/11 05:01:42;;;;;;;22.95;10.38;;;;;;;;;;8480681;27;20048;-77
2022/08/11 05:06:13;;;;;;;16.77;9.57;;;;;;;;;;8480150;27;20498;-77
2022/08/11 05:10:34;;;;;;;14.05;10.25;;;;;;;;;;8464861;27;20055;-77
2022/08/11 05:36:44;;;;;;;11.05;7.80;;;;;;;;;;8472550;27;20039;-77
2022/08/11 05:58:22;;;;;;;8.00;4.10;;;;;;;;;;8461818;27;20140;-78
2022/08/11 06:02:26;;;;;;;8.00;3.78;;;;;;;;;;8471897;27;20069;-77
2022/08/11 06:06:32;;;;;;;7.07;3.50;;;;;;;;;;8461834;27;20380;-78
2022/08/11 06:10:39;;;;;;;4.95;2.83;;;;;;;;;;8475157;27;20121;-79
2022/08/11 06:14:45;;;;;;;5.65;3.60;;;;;;;;;;8465376;27;20620;-79
2022/08/11 06:18:49;;;;;;;5.22;3.13;;;;;;;;;;8467806;27;20058;-78
2022/08/11 06:23:02;;;;;;;4.70;3.05;;;;;;;;;;8467482;27;20035;-77
2022/08/11 06:27:06;;;;;;;9.07;3.00;;;;;;;;;;8473169;27;20445;-77
2022/08/11 06:31:14;;;;;;;4.97;2.70;;;;;;;;;;8454284;27;20403;-77
2022/08/11 06:35:23;;;;;;;6.65;2.55;;;;;;;;;;8479738;27;20043;-78
2022/08/11 06:39:39;;;;;;;5.63;2.80;;;;;;;;;;8484101;27;20455;-78
2022/08/11 06:43:51;;;;;;;4.68;2.15;;;;;;;;;;8476684;27;20039;-77
2022/08/11 06:47:59;;;;;;;6.35;2.20;;;;;;;;;;8484707;27;20080;-81
2022/08/11 06:52:05;;;;;;;5.65;2.40;;;;;;;;;;8482758;27;20043;-80
2022/08/11 07:00:34;;;;;;;5.25;2.10;;;;;;;;;;8457518;27;20487;-78
2022/08/11 07:04:48;;;;;;;5.32;1.90;;;;;;;;;;8476588;27;20051;-79
2022/08/11 07:31:49;;;;;;;2.90;1.55;;;;;;;;;;8453978;28;20044;-76
2022/08/11 07:35:56;;;;;;;3.15;1.40;;;;;;;;;;8478351;28;20040;-77
2022/08/11 07:40:03;;;;;;;3.00;1.40;;;;;;;;;;8464176;28;20130;-76
2022/08/11 07:44:09;;;;;;;1.80;1.63;;;;;;;;;;8456351;28;20061;-77
2022/08/11 07:52:39;;;;;;;1.50;1.33;;;;;;;;;;8480722;28;20123;-79
2022/08/11 07:56:43;;;;;;;2.13;1.30;;;;;;;;;;8469745;28;20070;-75
2022/08/11 08:18:16;;;;;;;;;;;;;;;;;;8468964;27;20054;-78
2022/08/11 08:22:22;;;;;;;2.33;1.50;;;;;;;;;;8480632;27;20370;-76
2022/08/11 08:30:50;;;;;;;2.50;1.50;;;;;;;;;;8477167;27;20047;-77
2022/08/11 08:34:55;;;;;;;5.05;1.67;;;;;;;;;;8462768;27;20043;-77
2022/08/11 08:39:01;;;;;;;4.22;1.70;;;;;;;;;;8480313;27;20035;-76
2022/08/11 08:43:10;;;;;;;3.03;1.40;;;;;;;;;;8485645;27;20407;-77
2022/08/11 08:47:18;;;;;;;2.97;1.70;;;;;;;;;;8493945;27;20051;-76
2022/08/11 08:51:38;;;;;;;2.10;1.50;;;;;;;;;;8466432;27;20081;-76
2022/08/11 08:55:56;;;;;;;1.67;1.58;;;;;;;;;;8485800;27;20053;-77
2022/08/11 09:00:05;;;;;;;1.67;1.33;;;;;;;;;;8478566;27;20476;-77
2022/08/11 09:04:09;;;;;;;1.80;1.30;;;;;;;;;;8465406;27;20046;-78
2022/08/11 09:08:12;;;;;;;4.32;2.30;;;;;;;;;;8472367;27;20519;-77
2022/08/11 09:12:20;;;;;;;6.05;2.30;;;;;;;;;;8467247;27;20085;-77
2022/08/11 09:16:25;;;;;;;2.42;1.60;;;;;;;;;;8473358;27;20058;-77
2022/08/11 09:20:35;;;;;;;3.35;1.30;;;;;;;;;;8469207;27;20408;-77
2022/08/11 09:29:05;;;;;;;4.00;1.42;;;;;;;;;;8469735;27;20071;-76
2022/08/11 09:33:10;;;;;;;2.25;1.50;;;;;;;;;;8464317;27;20457;-79
2022/08/11 09:41:36;;;;;;;3.60;1.42;;;;;;;;;;8471720;27;20055;-77
2022/08/11 09:45:45;;;;;;;2.25;1.58;;;;;;;;;;8460539;27;20129;-79
2022/08/11 09:49:51;;;;;;;2.25;1.30;;;;;;;;;;8468696;27;20047;-77
2022/08/11 09:53:55;;;;;;;1.45;1.30;;;;;;;;;;8478307;27;20050;-77
2022/08/11 09:58:16;;;;;;;3.75;1.60;;;;;;;;;;8464006;27;20096;-76
2022/08/11 10:02:27;;;;;;;1.98;1.42;;;;;;;;;;8477906;27;20070;-77
2022/08/11 10:10:50;;;;;;;2.20;1.45;;;;;;;;;;8458228;27;20048;-77
2022/08/11 10:19:20;;;;;;;1.85;1.52;;;;;;;;;;8472204;27;20035;-78
2022/08/11 10:27:49;;;;;;;2.20;1.40;;;;;;;;;;8474729;27;20498;-77
2022/08/11 10:36:19;;;;;;;3.08;1.80;;;;;;;;;;8469179;27;20044;-77
2022/08/11 10:40:25;;;;;;;2.08;1.52;;;;;;;;;;8480652;27;20043;-78
2022/08/11 10:44:29;;;;;;;2.85;1.63;;;;;;;;;;8482122;27;20047;-77
2022/08/11 10:48:37;;;;;;;2.60;1.60;;;;;;;;;;8475070;27;20063;-78
2022/08/11 11:01:30;;;;;;;2.67;1.50;;;;;;;;;;8478495;27;20094;-77
2022/08/11 11:05:33;;;;;;;2.35;1.40;;;;;;;;;;8484467;27;20055;-79
2022/08/11 11:09:46;;;;;;;3.15;1.73;;;;;;;;;;8469542;28;20612;-78
2022/08/11 11:18:19;;;;;;;7.28;1.95;;;;;;;;;;8464010;28;20075;-78
2022/08/11 11:22:39;;;;;;;4.32;1.90;;;;;;;;;;8469054;28;20039;-78
2022/08/11 11:26:56;;;;;;;4.05;1.77;;;;;;;;;;8466265;28;20039;-78
2022/08/11 11:31:13;;;;;;;7.47;2.50;;;;;;;;;;8484294;28;20100;-82
2022/08/11 11:35:28;;;;;;;26.83;3.70;;;;;;;;;;8461332;28;20062;-79
2022/08/11 11:39:33;;;;;;;5.40;2.55;;;;;;;;;;8469004;28;20047;-80
2022/08/11 11:43:38;;;;;;;9.90;3.17;;;;;;;;;;8465158;28;20043;-81
2022/08/11 11:47:43;;;;;;;5.80;2.13;;;;;;;;;;8468137;28;20059;-80
2022/08/11 11:51:51;;;;;;;7.40;2.58;;;;;;;;;;8479517;27;20048;-80
2022/08/11 11:55:56;;;;;;;5.95;2.70;;;;;;;;;;8486430;27;20615;-80
2022/08/11 12:04:28;;;;;;;4.20;2.92;;;;;;;;;;8408214;27;20171;-80
2022/08/11 12:08:34;;;;;;;4.75;2.90;;;;;;;;;;8494238;27;20059;-80
2022/08/11 12:17:02;;;;;;;6.63;3.25;;;;;;;;;;8474848;27;20051;-80
2022/08/11 12:21:07;;;;;;;4.13;2.50;;;;;;;;;;8473301;27;20046;-80
2022/08/11 12:29:33;;;;;;;5.28;2.05;;;;;;;;;;8479367;27;20040;-88
2022/08/11 12:33:42;;;;;;;2.95;2.10;;;;;;;;;;8461581;27;20054;-79
2022/08/11 12:37:49;;;;;;;3.28;2.10;;;;;;;;;;8495187;27;20546;-79
2022/08/11 12:46:20;;;;;;;2.65;2.00;;;;;;;;;;8469551;27;20055;-80
2022/08/11 12:54:58;;;;;;;2.55;1.90;;;;;;;;;;8462681;27;20079;-80
2022/08/11 13:07:54;;;;;;;4.05;2.00;;;;;;;;;;8473036;27;20067;-80
2022/08/11 13:17:19;;;;;;;2.00;1.80;;;;;;;;;;8483362;27;20050;-80
2022/08/11 13:20:56;;;;;;;2.05;1.70;;;;;;;;;;8483165;27;20049;-80
2022/08/11 13:25:04;;;;;;;2.03;1.83;;;;;;;;;;8470729;27;20039;-80
2022/08/11 13:29:09;;;;;;;3.67;1.73;;;;;;;;;;8474928;27;20062;-82
2022/08/11 13:33:15;;;;;;;2.55;1.80;;;;;;;;;;8471989;27;20403;-79
2022/08/11 13:37:21;;;;;;;1.90;1.75;;;;;;;;;;8489273;27;20055;-79
2022/08/11 13:41:40;;;;;;;2.03;1.85;;;;;;;;;;8486947;27;20050;-80
2022/08/11 13:45:48;;;;;;;2.60;1.83;;;;;;;;;;8468395;27;20042;-79
2022/08/11 13:49:52;;;;;;;2.28;1.83;;;;;;;;;;8475573;27;20039;-79
2022/08/11 13:53:58;;;;;;;2.92;1.88;;;;;;;;;;8482186;27;20055;-80
2022/08/11 13:58:03;;;;;;;3.90;1.90;;;;;;;;;;8473364;27;20088;-86
2022/08/11 14:02:12;;;;;;;3.35;1.80;;;;;;;;;;8495170;27;20077;-80
2022/08/11 14:06:19;;;;;;;3.78;1.75;;;;;;;;;;8469955;27;20043;-84
2022/08/11 14:10:33;;;;;;;4.00;1.80;;;;;;;;;;8470983;27;20066;-82
2022/08/11 14:15:00;;;;;;;3.58;1.80;;;;;;;;;;8462311;27;20069;-88
2022/08/11 14:19:11;;;;;;;3.92;1.75;;;;;;;;;;8478872;27;20108;-89
2022/08/11 14:23:26;;;;;;;6.43;1.60;;;;;;;;;;8472245;27;20039;-82
2022/08/11 14:27:34;;;;;;;2.03;1.55;;;;;;;;;;8479503;27;20565;-82
2022/08/11 14:31:44;;;;;;;2.83;1.63;;;;;;;;;;8474276;27;20040;-83
2022/08/11 14:35:47;;;;;;;1.60;1.33;;;;;;;;;;8472925;27;20474;-84
2022/08/11 14:39:54;;;;;;;1.67;1.40;;;;;;;;;;8475726;27;20088;-82
2022/08/11 14:48:27;;;;;;;3.65;1.70;;;;;;;;;;8439504;27;20036;-80
2022/08/11 14:52:33;;;;;;;2.60;1.63;;;;;;;;;;8458424;27;20403;-82
2022/08/11 14:56:37;;;;;;;3.25;1.70;;;;;;;;;;8465593;27;20419;-82
2022/08/11 15:00:43;;;;;;;2.53;1.60;;;;;;;;;;8465590;27;20475;-83
2022/08/11 15:04:49;;;;;;;2.25;1.55;;;;;;;;;;8479761;27;20043;-81
2022/08/11 15:08:55;;;;;;;1.90;1.52;;;;;;;;;;8477845;27;20074;-81
2022/08/11 15:12:59;;;;;;;2.35;1.63;;;;;;;;;;8488606;27;20403;-81
2022/08/11 15:17:10;;;;;;;4.15;1.80;;;;;;;;;;8484777;27;20043;-81
2022/08/11 15:25:35;;;;;;;;;;;;;;;;;;8490455;27;19934;-81
2022/08/11 15:38:30;;;;;;;2.60;1.55;;;;;;;;;;8483021;27;20473;-82
2022/08/11 15:47:02;;;;;;;3.55;1.42;;;;;;;;;;8491597;27;20071;-81
2022/08/11 15:51:11;;;;;;;3.08;1.50;;;;;;;;;;8496618;27;20047;-82
2022/08/11 15:55:18;;;;;;;1.40;1.30;;;;;;;;;;8483415;27;20036;-82
2022/08/11 16:08:13;;;;;;;1.83;1.45;;;;;;;;;;8448480;27;20052;-82
2022/08/11 16:12:22;;;;;;;1.52;1.42;;;;;;;;;;8460336;27;20040;-82
2022/08/11 16:16:26;;;;;;;2.55;1.55;;;;;;;;;;8461796;27;20035;-84
2022/08/11 16:20:30;;;;;;;8.80;5.70;;;;;;;;;;8478790;27;20039;-84
2022/08/11 16:24:37;;;;;;;1.73;1.50;;;;;;;;;;8459599;27;20051;-84
2022/08/11 16:28:44;;;;;;;1.40;1.30;;;;;;;;;;8453190;27;20097;-84
2022/08/11 16:32:51;;;;;;;3.05;1.65;;;;;;;;;;8444815;27;20051;-84
2022/08/11 16:46:58;;;;;;;3.00;1.40;;;;;;;;;;8447978;27;20119;-84
2022/08/11 16:50:09;;;;;;;1.65;1.50;;;;;;;;;;8454641;27;20088;-85
2022/08/11 16:54:13;;;;;;;3.15;1.85;;;;;;;;;;8458802;27;20445;-84
2022/08/11 17:16:07;;;;;;;2.53;1.75;;;;;;;;;;8451217;27;20458;-84
2022/08/11 17:20:14;;;;;;;4.07;1.60;;;;;;;;;;8467782;27;20104;-85
2022/08/11 17:24:19;;;;;;;1.80;1.70;;;;;;;;;;8449516;27;20495;-85
2022/08/11 17:28:23;;;;;;;2.70;1.73;;;;;;;;;;8454250;27;20389;-88
2022/08/11 17:37:00;;;;;;;2.97;1.77;;;;;;;;;;8448139;27;20040;-86
2022/08/11 17:49:53;;;;;;;8.57;3.97;;;;;;;;;;8453386;27;20062;-83
